createdAt,value
2022-12-28T00:00:36.594Z,23.48
2022-12-28T00:03:09.884Z,24.23
2022-12-28T00:05:43.309Z,21.60
2022-12-28T00:08:17.970Z,22.52
2022-12-28T00:11:07.620Z,18.80
2022-12-28T00:13:44.838Z,17.38
2022-12-28T00:16:25.378Z,14.35
2022-12-28T00:19:00.429Z,14.40
2022-12-28T00:21:34.292Z,14.85
2022-12-28T00:24:09.859Z,15.25
2022-12-28T00:26:43.111Z,14.77
2022-12-28T00:29:16.828Z,13.95
2022-12-28T00:31:50.604Z,15.15
2022-12-28T00:34:24.355Z,14.63
2022-12-28T00:37:09.633Z,13.48
2022-12-28T00:39:47.321Z,14.75
2022-12-28T00:42:21.011Z,14.57
2022-12-28T00:44:54.431Z,13.63
2022-12-28T00:47:27.748Z,14.27
2022-12-28T00:50:01.284Z,15.27
2022-12-28T00:52:34.716Z,15.10
2022-12-28T00:55:10.184Z,16.20
2022-12-28T00:57:43.566Z,15.23
2022-12-28T01:00:17.803Z,15.02
2022-12-28T01:02:51.264Z,15.65
2022-12-28T01:05:26.460Z,16.92
2022-12-28T01:07:59.707Z,17.27
2022-12-28T01:10:34.328Z,17.13
2022-12-28T01:13:08.300Z,15.65
2022-12-28T01:15:42.538Z,15.90
2022-12-28T01:18:16.870Z,15.07
2022-12-28T01:20:49.990Z,17.33
2022-12-28T01:23:23.244Z,15.55
2022-12-28T01:26:02.609Z,17.70
2022-12-28T01:28:36.031Z,17.77
2022-12-28T01:31:11.905Z,20.00
2022-12-28T01:33:45.782Z,18.25
2022-12-28T01:36:21.638Z,18.10
2022-12-28T01:38:56.309Z,15.43
2022-12-28T01:41:32.375Z,15.27
2022-12-28T01:44:42.376Z,13.77
2022-12-28T01:47:19.969Z,10.93
2022-12-28T01:50:03.696Z,10.38
2022-12-28T01:52:40.356Z,11.02
2022-12-28T01:55:16.473Z,10.57
2022-12-28T01:57:55.071Z,9.27
2022-12-28T02:00:28.582Z,8.43
2022-12-28T02:03:04.458Z,7.65
2022-12-28T02:05:42.381Z,7.75
2022-12-28T02:08:21.559Z,7.95
2022-12-28T02:10:55.595Z,7.55
2022-12-28T02:13:31.787Z,8.13
2022-12-28T02:16:06.325Z,8.52
2022-12-28T02:18:42.770Z,9.57
2022-12-28T02:21:26.584Z,8.55
2022-12-28T02:24:34.477Z,9.57
2022-12-28T02:27:22.646Z,9.52
2022-12-28T02:30:04.615Z,14.15
2022-12-28T02:32:56.453Z,11.55
2022-12-28T02:35:40.070Z,10.32
2022-12-28T02:38:17.377Z,12.03
2022-12-28T02:40:57.205Z,12.95
2022-12-28T02:43:30.649Z,12.02
2022-12-28T02:46:30.291Z,13.90
2022-12-28T02:49:36.506Z,11.77
2022-12-28T02:52:17.910Z,13.35
2022-12-28T02:55:28.615Z,12.05
2022-12-28T02:58:31.699Z,14.48
2022-12-28T03:01:21.015Z,14.85
2022-12-28T03:04:06.170Z,15.02
2022-12-28T03:07:05.747Z,16.42
2022-12-28T03:09:45.972Z,14.15
2022-12-28T03:12:26.982Z,13.73
2022-12-28T03:15:07.977Z,13.73
2022-12-28T03:18:02.832Z,14.32
2022-12-28T03:20:53.273Z,13.00
2022-12-28T03:23:44.817Z,14.32
2022-12-28T03:26:38.239Z,12.00
2022-12-28T03:29:33.284Z,12.82
2022-12-28T03:32:08.453Z,13.00
2022-12-28T03:34:43.354Z,15.63
2022-12-28T03:37:25.771Z,13.05
2022-12-28T03:40:07.960Z,13.75
2022-12-28T03:43:04.655Z,12.13
2022-12-28T03:45:46.392Z,12.20
2022-12-28T03:48:21.029Z,20.77
2022-12-28T03:50:56.928Z,24.05
2022-12-28T03:53:38.032Z,23.98
2022-12-28T03:56:13.082Z,21.95
2022-12-28T03:58:46.489Z,21.83
2022-12-28T04:01:19.932Z,18.92
2022-12-28T04:03:53.384Z,17.02
2022-12-28T04:06:28.085Z,17.45
2022-12-28T04:09:01.527Z,12.18
2022-12-28T04:11:35.484Z,13.43
2022-12-28T04:14:11.091Z,11.10
2022-12-28T04:16:44.874Z,9.98
2022-12-28T04:19:18.332Z,7.13
2022-12-28T04:21:53.152Z,7.45
2022-12-28T04:24:26.759Z,7.82
2022-12-28T04:29:34.065Z,8.05
2022-12-28T04:32:07.444Z,8.93
2022-12-28T04:34:46.386Z,7.95
2022-12-28T04:37:23.205Z,7.95
2022-12-28T04:39:57.461Z,7.53
2022-12-28T04:42:32.781Z,8.43
2022-12-28T04:45:07.205Z,9.32
2022-12-28T04:47:40.470Z,9.15
2022-12-28T04:50:13.752Z,10.55
2022-12-28T04:52:48.360Z,9.70
2022-12-28T04:55:32.624Z,10.30
2022-12-28T04:58:06.963Z,9.45
2022-12-28T05:00:40.651Z,9.07
2022-12-28T05:03:14.018Z,9.15
2022-12-28T05:05:48.722Z,9.48
2022-12-28T05:08:23.645Z,9.82
2022-12-28T05:11:01.067Z,10.30
2022-12-28T05:13:35.796Z,10.88
2022-12-28T05:16:12.914Z,10.60
2022-12-28T05:18:49.030Z,9.40
2022-12-28T05:21:23.860Z,9.35
2022-12-28T05:23:58.972Z,9.75
2022-12-28T05:26:32.252Z,9.20
2022-12-28T05:29:05.870Z,9.30
2022-12-28T05:31:39.243Z,8.55
2022-12-28T05:34:12.886Z,10.73
2022-12-28T05:36:47.220Z,10.43
2022-12-28T05:39:22.616Z,11.93
2022-12-28T05:42:00.150Z,10.85
2022-12-28T05:44:33.592Z,10.93
2022-12-28T05:47:07.126Z,11.43
2022-12-28T05:49:40.827Z,13.30
2022-12-28T05:52:14.143Z,14.02
2022-12-28T05:54:49.095Z,14.50
2022-12-28T05:57:22.358Z,15.25
2022-12-28T05:59:55.887Z,14.05
2022-12-28T06:02:29.638Z,14.65
2022-12-28T06:05:03.366Z,15.60
2022-12-28T06:07:36.987Z,14.05
2022-12-28T06:10:12.148Z,15.60
2022-12-28T06:12:47.482Z,15.30
2022-12-28T06:15:21.181Z,14.07
2022-12-28T06:17:55.095Z,14.40
2022-12-28T06:20:28.644Z,13.95
2022-12-28T06:23:02.033Z,15.15
2022-12-28T06:25:38.543Z,14.32
2022-12-28T06:28:11.940Z,13.82
2022-12-28T06:30:50.484Z,15.80
2022-12-28T06:33:26.182Z,15.02
2022-12-28T06:35:59.997Z,16.70
2022-12-28T06:38:34.541Z,15.68
2022-12-28T06:41:13.913Z,15.93
2022-12-28T06:43:49.335Z,18.95
2022-12-28T06:46:25.343Z,22.15
2022-12-28T06:48:58.698Z,24.60
2022-12-28T06:51:36.214Z,27.13
2022-12-28T06:54:09.894Z,26.85
2022-12-28T06:59:18.282Z,25.30
2022-12-28T07:01:52.039Z,24.77
2022-12-28T07:06:59.313Z,22.27
2022-12-28T07:09:32.772Z,23.58
2022-12-28T07:12:08.770Z,26.88
2022-12-28T07:14:43.017Z,28.17
2022-12-28T07:17:16.904Z,29.05
2022-12-28T07:19:51.391Z,29.55
2022-12-28T07:22:24.716Z,30.45
2022-12-28T07:24:58.144Z,30.23
2022-12-28T07:27:32.846Z,30.33
2022-12-28T07:30:07.324Z,29.85
2022-12-28T07:32:40.919Z,35.42
2022-12-28T07:35:14.187Z,32.20
2022-12-28T07:37:47.702Z,32.85
2022-12-28T07:40:21.214Z,34.13
2022-12-28T07:42:56.189Z,34.53
2022-12-28T07:45:29.675Z,36.70
2022-12-28T07:48:03.240Z,38.67
2022-12-28T07:50:38.098Z,36.75
2022-12-28T07:53:12.455Z,41.58
2022-12-28T07:55:56.366Z,38.38
2022-12-28T07:58:31.439Z,38.83
2022-12-28T08:01:06.588Z,39.88
2022-12-28T08:03:41.214Z,41.25
2022-12-28T08:06:18.781Z,40.90
2022-12-28T08:08:54.250Z,43.92
2022-12-28T08:11:31.805Z,45.47
2022-12-28T08:14:08.213Z,45.25
2022-12-28T08:16:43.268Z,48.15
2022-12-28T08:19:16.618Z,47.30
2022-12-28T08:21:50.110Z,45.97
2022-12-28T08:24:23.963Z,44.38
2022-12-28T08:26:57.484Z,45.95
2022-12-28T08:29:35.061Z,46.75
2022-12-28T08:32:08.333Z,52.15
2022-12-28T08:34:41.978Z,56.33
2022-12-28T08:37:15.282Z,53.97
2022-12-28T08:39:48.855Z,58.45
2022-12-28T08:42:22.380Z,54.72
2022-12-28T08:44:57.463Z,54.78
2022-12-28T08:47:30.806Z,52.33
2022-12-28T08:50:04.017Z,51.72
2022-12-28T08:52:37.254Z,54.80
2022-12-28T08:55:11.097Z,51.88
2022-12-28T09:00:20.155Z,48.08
2022-12-28T09:02:53.702Z,51.35
2022-12-28T09:05:27.077Z,46.28
2022-12-28T09:10:34.339Z,44.72
2022-12-28T09:13:09.097Z,48.50
2022-12-28T09:15:44.601Z,51.67
2022-12-28T09:18:17.978Z,51.38
2022-12-28T09:20:51.174Z,46.00
2022-12-28T09:23:24.857Z,47.47
2022-12-28T09:25:58.065Z,45.55
2022-12-28T09:28:31.731Z,49.42
2022-12-28T09:31:08.100Z,46.20
2022-12-28T09:36:53.947Z,45.17
2022-12-28T09:39:27.319Z,41.92
2022-12-28T09:42:03.504Z,39.55
2022-12-28T09:44:48.465Z,43.33
2022-12-28T09:47:34.838Z,41.55
2022-12-28T09:50:30.243Z,43.47
2022-12-28T09:53:30.444Z,48.08
2022-12-28T09:56:07.102Z,48.10
2022-12-28T09:58:46.429Z,44.63
2022-12-28T10:01:23.398Z,49.97
2022-12-28T10:04:01.758Z,50.13
2022-12-28T10:06:36.896Z,47.15
2022-12-28T10:09:14.780Z,41.83
2022-12-28T10:11:49.102Z,40.30
2022-12-28T10:14:28.297Z,42.33
2022-12-28T10:17:03.223Z,37.67
2022-12-28T10:19:38.448Z,39.17
2022-12-28T10:22:15.712Z,41.03
2022-12-28T10:24:49.839Z,42.70
2022-12-28T10:27:26.065Z,41.78
2022-12-28T10:30:02.600Z,30.25
2022-12-28T10:32:50.138Z,29.50
2022-12-28T10:35:27.603Z,26.83
2022-12-28T10:38:05.003Z,26.13
2022-12-28T10:40:40.001Z,24.67
2022-12-28T10:43:20.272Z,25.27
2022-12-28T10:45:53.907Z,15.82
2022-12-28T10:48:31.864Z,16.27
2022-12-28T10:51:15.073Z,15.30
2022-12-28T10:53:50.547Z,13.80
2022-12-28T10:56:26.870Z,12.25
2022-12-28T10:59:26.098Z,10.88
2022-12-28T11:02:25.160Z,8.88
2022-12-28T11:05:01.252Z,10.10
2022-12-28T11:07:37.842Z,10.52
2022-12-28T11:10:25.824Z,9.73
2022-12-28T11:13:01.093Z,9.77
2022-12-28T11:15:35.045Z,9.95
2022-12-28T11:18:16.656Z,9.15
2022-12-28T11:20:52.389Z,10.98
2022-12-28T11:23:31.798Z,8.95
2022-12-28T11:26:05.356Z,8.13
2022-12-28T11:28:41.241Z,9.45
2022-12-28T11:31:22.279Z,9.73
2022-12-28T11:33:59.647Z,9.35
2022-12-28T11:36:38.796Z,7.55
2022-12-28T11:39:42.046Z,6.72
2022-12-28T11:42:55.100Z,8.35
2022-12-28T11:45:54.661Z,6.53
2022-12-28T11:48:58.661Z,9.80
2022-12-28T11:51:34.075Z,7.82
2022-12-28T11:54:40.692Z,8.50
2022-12-28T11:57:34.525Z,7.72
2022-12-28T12:00:49.147Z,6.10
2022-12-28T12:04:06.763Z,6.90
2022-12-28T12:07:32.113Z,6.72
2022-12-28T12:10:35.229Z,6.90
2022-12-28T12:13:45.022Z,7.25
2022-12-28T12:16:25.317Z,6.90
2022-12-28T12:19:00.801Z,6.70
2022-12-28T12:21:39.184Z,6.03
2022-12-28T12:24:26.993Z,7.15
2022-12-28T12:27:12.062Z,5.90
2022-12-28T12:29:52.743Z,7.88
2022-12-28T12:32:31.976Z,6.03
2022-12-28T12:35:07.657Z,7.53
2022-12-28T12:37:47.654Z,7.45
2022-12-28T12:40:54.564Z,6.95
2022-12-28T12:43:41.725Z,6.78
2022-12-28T12:46:44.735Z,7.40
2022-12-28T12:49:32.991Z,6.50
2022-12-28T12:52:20.464Z,6.72
2022-12-28T12:55:05.667Z,6.75
2022-12-28T12:57:52.208Z,6.72
2022-12-28T13:00:34.109Z,6.75
2022-12-28T13:03:25.336Z,6.90
2022-12-28T13:05:59.834Z,6.63
2022-12-28T13:08:39.254Z,6.22
2022-12-28T13:11:14.413Z,7.32
2022-12-28T13:13:51.268Z,7.07
2022-12-28T13:16:28.520Z,5.75
2022-12-28T13:19:04.240Z,5.47
2022-12-28T13:21:43.091Z,6.60
2022-12-28T13:24:25.144Z,6.55
2022-12-28T13:27:00.784Z,7.85
2022-12-28T13:29:39.776Z,14.85
2022-12-28T13:32:29.397Z,14.07
2022-12-28T13:35:18.441Z,10.90
2022-12-28T13:38:03.769Z,8.75
2022-12-28T13:40:39.885Z,10.90
2022-12-28T13:43:46.265Z,9.88
2022-12-28T13:46:21.662Z,9.07
2022-12-28T13:48:59.637Z,8.90
2022-12-28T13:51:39.150Z,9.85
2022-12-28T13:54:13.551Z,8.50
2022-12-28T13:56:47.601Z,8.38
2022-12-28T13:59:22.264Z,10.05
2022-12-28T14:01:56.951Z,10.93
2022-12-28T14:07:30.062Z,10.15
2022-12-28T14:10:04.725Z,9.57
2022-12-28T14:12:39.528Z,11.10
2022-12-28T14:15:14.628Z,10.65
2022-12-28T14:17:51.775Z,9.88
2022-12-28T14:20:26.733Z,11.75
2022-12-28T14:23:21.727Z,10.10
2022-12-28T14:25:58.005Z,9.27
2022-12-28T14:28:35.710Z,9.48
2022-12-28T14:31:11.476Z,12.73
2022-12-28T14:33:54.296Z,10.05
2022-12-28T14:36:31.647Z,9.50
2022-12-28T14:39:06.708Z,8.85
2022-12-28T14:41:42.533Z,7.50
2022-12-28T14:44:19.013Z,8.90
2022-12-28T14:46:54.517Z,7.80
2022-12-28T14:49:37.826Z,9.38
2022-12-28T14:52:36.123Z,9.50
2022-12-28T14:55:24.905Z,11.00
2022-12-28T14:58:03.734Z,12.50
2022-12-28T15:00:38.410Z,13.85
2022-12-28T15:03:18.117Z,14.00
2022-12-28T15:05:53.125Z,15.50
2022-12-28T15:08:28.539Z,14.07
2022-12-28T15:13:38.071Z,13.93
2022-12-28T15:16:13.762Z,14.02
2022-12-28T15:18:47.569Z,14.00
2022-12-28T15:21:24.136Z,18.73
2022-12-28T15:23:59.616Z,18.92
2022-12-28T15:26:33.023Z,19.27
2022-12-28T15:29:06.704Z,19.77
2022-12-28T15:31:42.253Z,15.77
2022-12-28T15:34:15.777Z,16.42
2022-12-28T15:39:25.129Z,9.98
2022-12-28T15:41:58.491Z,9.05
2022-12-28T15:44:31.653Z,8.25
2022-12-28T15:47:04.907Z,9.05
2022-12-28T15:49:39.655Z,9.35
2022-12-28T15:54:47.878Z,10.68
2022-12-28T15:57:21.039Z,14.15
2022-12-28T15:59:54.985Z,13.70
2022-12-28T16:02:28.460Z,12.57
2022-12-28T16:07:35.877Z,10.77
2022-12-28T16:10:11.374Z,11.10
2022-12-28T16:12:45.009Z,12.25
2022-12-28T16:15:19.012Z,14.13
2022-12-28T16:17:57.252Z,16.45
2022-12-28T16:20:31.295Z,22.63
2022-12-28T16:23:04.702Z,17.88
2022-12-28T16:25:39.505Z,18.70
2022-12-28T16:28:12.997Z,19.40
2022-12-28T16:30:49.803Z,16.70
2022-12-28T16:33:24.136Z,15.57
2022-12-28T16:35:59.709Z,18.73
2022-12-28T16:38:35.861Z,18.45
2022-12-28T16:41:10.500Z,18.42
2022-12-28T16:43:43.717Z,17.85
2022-12-28T16:46:17.615Z,20.08
2022-12-28T16:48:51.298Z,20.88
2022-12-28T16:51:25.065Z,14.00
2022-12-28T16:53:59.245Z,13.90
2022-12-28T16:56:34.027Z,12.50
2022-12-28T16:59:07.576Z,10.98
2022-12-28T17:01:42.124Z,11.57
2022-12-28T17:04:15.978Z,9.93
2022-12-28T17:09:24.160Z,9.30
2022-12-28T17:11:59.725Z,8.57
2022-12-28T17:14:38.048Z,9.18
2022-12-28T17:17:12.032Z,8.80
2022-12-28T17:22:19.732Z,7.40
2022-12-28T17:24:53.322Z,7.93
2022-12-28T17:27:28.234Z,7.97
2022-12-28T17:30:01.432Z,7.28
2022-12-28T17:32:34.775Z,8.82
2022-12-28T17:37:42.861Z,12.30
2022-12-28T17:40:16.214Z,13.43
2022-12-28T17:42:50.837Z,12.95
2022-12-28T17:45:24.045Z,17.65
2022-12-28T17:47:57.351Z,17.50
2022-12-28T17:50:30.887Z,14.57
2022-12-28T17:53:04.533Z,15.88
2022-12-28T17:55:38.446Z,17.80
2022-12-28T18:03:21.142Z,11.50
2022-12-28T18:05:55.894Z,11.45
2022-12-28T18:08:29.771Z,11.65
2022-12-28T18:13:38.707Z,14.20
2022-12-28T18:16:15.139Z,18.58
2022-12-28T18:18:49.010Z,14.90
2022-12-28T18:21:23.196Z,13.80
2022-12-28T18:23:56.846Z,12.07
2022-12-28T18:26:30.792Z,13.57
2022-12-28T18:29:05.520Z,10.38
2022-12-28T18:31:38.946Z,12.57
2022-12-28T18:34:12.234Z,14.15
2022-12-28T18:36:45.488Z,16.58
2022-12-28T18:41:52.870Z,15.23
2022-12-28T18:44:28.150Z,14.80
2022-12-28T18:47:01.405Z,15.93
2022-12-28T18:49:34.617Z,16.85
2022-12-28T18:52:07.853Z,20.02
2022-12-28T18:54:41.350Z,18.63
2022-12-28T18:57:15.310Z,22.90
2022-12-28T18:59:50.438Z,25.63
2022-12-28T19:02:23.949Z,27.40
2022-12-28T19:04:57.685Z,27.70
2022-12-28T19:07:31.204Z,27.35
2022-12-28T19:10:13.905Z,27.33
2022-12-28T19:12:48.395Z,30.92
2022-12-28T19:15:23.397Z,33.35
2022-12-28T19:17:56.740Z,39.85
2022-12-28T19:20:30.431Z,44.90
2022-12-28T19:23:03.483Z,42.85
2022-12-28T19:25:38.915Z,47.05
2022-12-28T19:28:12.451Z,44.75
2022-12-28T19:30:47.346Z,46.65
2022-12-28T19:33:20.477Z,50.42
2022-12-28T19:35:53.880Z,52.33
2022-12-28T19:38:27.370Z,53.53
2022-12-28T19:43:38.531Z,57.50
2022-12-28T19:46:15.111Z,60.97
2022-12-28T19:48:48.521Z,51.90
2022-12-28T19:51:27.081Z,47.50
2022-12-28T19:54:04.052Z,38.28
2022-12-28T19:56:37.522Z,31.15
2022-12-28T20:01:45.853Z,25.10
2022-12-28T20:04:19.291Z,26.17
2022-12-28T20:06:52.717Z,25.10
2022-12-28T20:09:26.485Z,23.02
2022-12-28T20:12:01.682Z,21.30
2022-12-28T20:14:35.719Z,18.92
2022-12-28T20:17:10.839Z,16.98
2022-12-28T20:19:44.138Z,19.45
2022-12-28T20:22:17.375Z,17.40
2022-12-28T20:24:50.714Z,17.95
2022-12-28T20:27:28.470Z,18.73
2022-12-28T20:30:01.757Z,16.90
2022-12-28T20:32:41.230Z,15.18
2022-12-28T20:35:17.997Z,15.38
2022-12-28T20:37:51.368Z,15.38
2022-12-28T20:40:24.976Z,15.18
2022-12-28T20:43:15.677Z,13.55
2022-12-28T20:45:54.080Z,16.63
2022-12-28T20:48:29.861Z,17.33
2022-12-28T20:51:03.613Z,16.77
2022-12-28T20:53:37.093Z,27.70
2022-12-28T20:56:11.270Z,21.60
2022-12-28T20:58:44.637Z,18.08
2022-12-28T21:01:19.008Z,17.70
2022-12-28T21:03:54.318Z,15.05
2022-12-28T21:06:27.619Z,15.80
2022-12-28T21:09:01.363Z,13.43
2022-12-28T21:11:34.661Z,13.65
2022-12-28T21:14:08.455Z,13.68
2022-12-28T21:19:17.816Z,12.68
2022-12-28T21:21:51.187Z,15.07
2022-12-28T21:24:24.685Z,14.32
2022-12-28T21:26:57.917Z,18.92
2022-12-28T21:29:31.326Z,31.48
2022-12-28T21:32:05.138Z,38.85
2022-12-28T21:34:40.325Z,39.03
2022-12-28T21:37:31.415Z,23.30
2022-12-28T21:40:08.172Z,21.02
2022-12-28T21:42:41.830Z,22.02
2022-12-28T21:45:15.390Z,22.92
2022-12-28T21:47:48.624Z,22.92
2022-12-28T21:50:23.290Z,21.23
2022-12-28T21:52:56.575Z,23.42
2022-12-28T21:55:46.907Z,22.70
2022-12-28T21:58:20.169Z,23.50
2022-12-28T22:01:16.345Z,27.02
2022-12-28T22:04:07.461Z,30.48
2022-12-28T22:06:42.329Z,25.65
2022-12-28T22:09:33.365Z,25.20
2022-12-28T22:12:24.935Z,23.48
2022-12-28T22:15:12.659Z,22.42
2022-12-28T22:17:46.701Z,21.88
2022-12-28T22:22:56.703Z,18.77
2022-12-28T22:25:31.603Z,21.08
2022-12-28T22:28:05.568Z,21.45
2022-12-28T22:30:38.912Z,22.70
2022-12-28T22:33:12.141Z,20.08
2022-12-28T22:35:45.510Z,20.00
2022-12-28T22:38:20.445Z,20.15
2022-12-28T22:40:58.388Z,20.30
2022-12-28T22:43:31.648Z,19.50
2022-12-28T22:46:06.743Z,17.88
2022-12-28T22:48:40.297Z,18.10
2022-12-28T22:51:16.810Z,19.23
2022-12-28T22:53:51.486Z,18.05
2022-12-28T22:56:24.701Z,17.15
2022-12-28T22:59:04.230Z,16.73
2022-12-28T23:01:38.697Z,15.30
2022-12-28T23:04:12.544Z,16.48
2022-12-28T23:06:45.962Z,17.17
2022-12-28T23:09:20.547Z,18.38
2022-12-28T23:11:57.689Z,18.02
2022-12-28T23:17:23.814Z,17.70
2022-12-28T23:20:14.435Z,20.98
2022-12-28T23:23:04.999Z,19.90
2022-12-28T23:25:58.877Z,20.80
2022-12-28T23:28:32.219Z,18.30
2022-12-28T23:31:06.110Z,18.85
2022-12-28T23:33:39.553Z,17.17
2022-12-28T23:36:12.933Z,16.98
2022-12-28T23:38:46.394Z,14.98
2022-12-28T23:41:38.297Z,13.70
2022-12-28T23:44:11.712Z,15.20
2022-12-28T23:46:46.832Z,14.75
2022-12-28T23:49:20.766Z,14.90
2022-12-28T23:54:28.169Z,13.38
2022-12-28T23:57:03.087Z,14.77
2022-12-28T23:59:36.262Z,13.48
